VG42 weather

Henshaw Airport
Hopewell, Virginia, United States

Public forecast

Using degrees Fahrenheit for public forecast. Weather courtesy of forecast.io.

METAR (pilot weather report)

Closest report is New Kent County Airport, 15.1 nm (28.0 km) N. Retrieved UTC (0 seconds ago):

TAF (pilot weather forecast)

Forecast is more than 12 hours old.

Closest forecast is Richmond International Airport, 17.1 nm (31.7 km) NNW. Retrieved 2019/06/25 00:42 UTC (1 day ago):

TAF KRIC 252340Z 2600/2624 29005KT P6SM SCT080 BKN200 FM260700 35007KT P6SM SKC FM261800 29006KT P6SM FEW070